Time;durP1;ratioP1;P1;durP2;ratioP2;P2;SDS_P1;SDS_P2;PMS_P1;PMS_P2;Temp;Humidity;BMP_temperature;BMP_pressure;BME280_temperature;BME280_humidity;BME280_pressure;Samples;Min_cycle;Max_cycle;Signal;HPM_P1;HPM_P2
2021/08/19 00:00:01;;;;;;;5.50;2.80;;;15.10;99.90;;;;;;6242417;23;20016;-82
2021/08/19 00:02:29;;;;;;;4.40;2.80;;;15.10;99.90;;;;;;6242084;22;20466;-82
2021/08/19 00:04:56;;;;;;;4.60;2.90;;;15.10;99.90;;;;;;6242971;23;20012;-82
2021/08/19 00:07:23;;;;;;;5.35;3.00;;;15.10;99.90;;;;;;6242138;22;20063;-80
2021/08/19 00:09:52;;;;;;;4.85;2.50;;;15.10;99.90;;;;;;6242999;23;20436;-83
2021/08/19 00:12:19;;;;;;;6.60;3.22;;;15.10;99.90;;;;;;6241672;22;20027;-82
2021/08/19 00:14:49;;;;;;;7.50;2.80;;;15.00;99.90;;;;;;6242926;23;20381;-82
2021/08/19 00:17:16;;;;;;;9.30;3.25;;;15.00;99.90;;;;;;6241784;22;20091;-83
2021/08/19 00:19:43;;;;;;;5.05;3.00;;;15.00;99.90;;;;;;6242701;23;20158;-80
2021/08/19 00:22:11;;;;;;;7.85;3.15;;;15.00;99.90;;;;;;6241868;22;20040;-82
2021/08/19 00:24:38;;;;;;;6.15;3.00;;;15.00;99.90;;;;;;6243064;23;20122;-82
2021/08/19 00:27:05;;;;;;;5.43;3.00;;;14.90;99.90;;;;;;6242045;22;20020;-81
2021/08/19 00:29:32;;;;;;;5.72;3.28;;;14.90;99.90;;;;;;6242845;23;20020;-82
2021/08/19 00:32:02;;;;;;;6.68;3.30;;;14.90;99.90;;;;;;6209413;23;20091;-80
2021/08/19 00:34:29;;;;;;;9.27;3.55;;;14.90;99.90;;;;;;6241017;23;20022;-82
2021/08/19 00:36:56;;;;;;;8.30;3.25;;;14.90;99.90;;;;;;6242360;23;20016;-82
2021/08/19 00:39:24;;;;;;;9.15;3.50;;;14.90;99.90;;;;;;6241107;22;20020;-82
2021/08/19 00:41:51;;;;;;;7.07;3.10;;;14.90;99.90;;;;;;6228113;23;20016;-83
2021/08/19 00:44:18;;;;;;;6.57;3.35;;;14.90;99.90;;;;;;6241669;22;20024;-82
2021/08/19 00:46:45;;;;;;;4.35;3.20;;;14.90;99.90;;;;;;6243267;23;20016;-82
2021/08/19 00:49:15;;;;;;;6.38;3.55;;;14.90;99.90;;;;;;6242869;22;20019;-81
2021/08/19 00:51:48;;;;;;;4.60;3.03;;;14.90;99.90;;;;;;6244720;23;20066;-82
2021/08/19 00:54:36;;;;;;;6.85;3.10;;;14.90;99.90;;;;;;6243801;22;20016;-83
2021/08/19 00:57:04;;;;;;;9.00;3.25;;;14.90;99.90;;;;;;6244213;23;20017;-82
2021/08/19 00:59:37;;;;;;;6.35;3.28;;;14.90;99.90;;;;;;6243717;23;20433;-81
2021/08/19 01:02:09;;;;;;;7.57;3.08;;;14.90;99.90;;;;;;6243688;22;20043;-82
2021/08/19 01:04:40;;;;;;;4.22;2.92;;;14.90;99.90;;;;;;6228376;23;20020;-82
2021/08/19 01:07:09;;;;;;;5.55;3.10;;;14.90;99.90;;;;;;6226111;22;20096;-81
2021/08/19 01:09:36;;;;;;;5.93;3.13;;;14.90;99.90;;;;;;6243824;23;20016;-80
2021/08/19 01:12:09;;;;;;;7.30;3.30;;;14.90;99.90;;;;;;6204798;23;20026;-82
2021/08/19 01:14:36;;;;;;;7.50;3.65;;;14.90;99.90;;;;;;6244037;23;20055;-80
2021/08/19 01:17:17;;;;;;;6.40;3.25;;;14.90;99.90;;;;;;6242836;22;20091;-83
2021/08/19 01:19:49;;;;;;;8.95;4.43;;;14.90;99.90;;;;;;6244063;23;20020;-83
2021/08/19 01:22:17;;;;;;;4.32;3.55;;;14.90;99.90;;;;;;6243408;22;20020;-83
2021/08/19 01:24:44;;;;;;;6.63;3.87;;;14.90;99.90;;;;;;6244563;23;20091;-82
2021/08/19 01:27:17;;;;;;;5.32;3.92;;;14.90;99.90;;;;;;6230487;22;20016;-82
2021/08/19 01:29:45;;;;;;;7.10;4.10;;;14.90;99.90;;;;;;6244110;23;20016;-81
2021/08/19 01:32:12;;;;;;;;;;;14.90;99.90;;;;;;6243215;22;20024;-83
2021/08/19 01:34:40;;;;;;;9.70;4.53;;;14.90;99.90;;;;;;6244552;23;19920;-82
2021/08/19 01:37:08;;;;;;;7.60;4.50;;;14.90;99.90;;;;;;6243203;22;20043;-82
2021/08/19 01:39:38;;;;;;;9.90;4.80;;;14.90;99.90;;;;;;6243802;23;20020;-81
2021/08/19 01:42:05;;;;;;;8.10;4.53;;;14.80;99.90;;;;;;6243843;22;20020;-81
2021/08/19 01:44:32;;;;;;;9.73;5.07;;;14.90;99.90;;;;;;6244053;23;20020;-79
2021/08/19 01:47:01;;;;;;;7.97;4.50;;;14.80;99.90;;;;;;6244354;23;20016;-82
2021/08/19 01:49:33;;;;;;;7.70;4.97;;;14.80;99.90;;;;;;6243550;22;20021;-82
2021/08/19 01:52:05;;;;;;;6.03;5.10;;;14.90;99.90;;;;;;6244468;23;20441;-82
2021/08/19 01:54:32;;;;;;;8.52;5.32;;;14.80;99.90;;;;;;6243371;23;20027;-83
2021/08/19 01:57:00;;;;;;;8.23;5.55;;;14.80;99.90;;;;;;6243780;23;20463;-80
2021/08/19 01:59:30;;;;;;;9.80;5.60;;;14.90;99.90;;;;;;6242506;22;20024;-81
2021/08/19 02:01:57;;;;;;;7.53;5.03;;;14.90;99.90;;;;;;6243828;23;20020;-80
2021/08/19 02:04:25;;;;;;;14.13;5.43;;;14.90;99.90;;;;;;6243085;22;20024;-82
2021/08/19 02:06:52;;;;;;;7.35;5.30;;;14.80;99.90;;;;;;6244180;23;20024;-82
2021/08/19 02:09:19;;;;;;;14.60;5.82;;;14.80;99.90;;;;;;6243046;22;20012;-83
2021/08/19 02:11:46;;;;;;;10.57;5.35;;;14.80;99.90;;;;;;6244052;23;20314;-81
2021/08/19 02:14:13;;;;;;;8.20;5.65;;;14.80;99.90;;;;;;6243211;22;20031;-82
2021/08/19 02:16:40;;;;;;;9.18;5.68;;;14.80;99.90;;;;;;6243769;23;20028;-82
2021/08/19 02:19:07;;;;;;;8.70;5.95;;;14.80;99.90;;;;;;6243088;22;20495;-83
2021/08/19 02:21:34;;;;;;;10.10;5.82;;;14.80;99.90;;;;;;6243988;23;20504;-82
2021/08/19 02:24:01;;;;;;;9.25;6.03;;;14.80;99.90;;;;;;6244293;23;20324;-82
2021/08/19 02:26:28;;;;;;;7.57;5.47;;;14.80;99.90;;;;;;6243082;22;20024;-79
2021/08/19 02:28:55;;;;;;;10.32;5.63;;;14.80;99.90;;;;;;6243993;23;20021;-82
2021/08/19 02:31:22;;;;;;;8.50;5.75;;;14.70;99.90;;;;;;6242968;22;20035;-82
2021/08/19 02:33:49;;;;;;;13.00;5.95;;;14.80;99.90;;;;;;6243823;23;20020;-82
2021/08/19 02:36:17;;;;;;;11.95;5.70;;;14.80;99.90;;;;;;6242835;22;20358;-81
2021/08/19 02:38:44;;;;;;;8.68;5.75;;;14.80;99.90;;;;;;6243951;23;20445;-81
2021/08/19 02:41:11;;;;;;;10.02;5.95;;;14.70;99.90;;;;;;6242845;22;20406;-80
2021/08/19 02:43:42;;;;;;;9.18;5.90;;;14.70;99.90;;;;;;6243921;23;20036;-79
2021/08/19 02:46:11;;;;;;;7.55;5.75;;;14.70;99.90;;;;;;6242967;22;20022;-82
2021/08/19 02:48:38;;;;;;;6.53;5.50;;;14.70;99.90;;;;;;6243414;23;20016;-82
2021/08/19 02:51:05;;;;;;;7.85;5.57;;;14.70;99.90;;;;;;6218496;23;20016;-81
2021/08/19 02:53:32;;;;;;;7.78;5.57;;;14.70;99.90;;;;;;6231518;23;20349;-83
2021/08/19 02:55:59;;;;;;;13.02;5.68;;;14.70;99.90;;;;;;6243670;23;20040;-81
2021/08/19 02:58:26;;;;;;;8.52;5.85;;;14.70;99.90;;;;;;6242704;22;20028;-82
2021/08/19 03:00:53;;;;;;;9.15;6.03;;;14.70;99.90;;;;;;6243678;23;20016;-82
2021/08/19 03:03:21;;;;;;;9.95;6.25;;;14.70;99.90;;;;;;6242498;22;20031;-80
2021/08/19 03:05:48;;;;;;;9.63;5.88;;;14.80;99.90;;;;;;6243589;23;20035;-82
2021/08/19 03:08:15;;;;;;;8.75;6.18;;;14.70;99.90;;;;;;6242202;22;20020;-82
2021/08/19 03:10:42;;;;;;;10.30;6.20;;;14.70;99.90;;;;;;6243309;23;20012;-82
2021/08/19 03:13:09;;;;;;;10.90;5.70;;;14.70;99.90;;;;;;6243013;22;20027;-82
2021/08/19 03:15:36;;;;;;;9.32;5.20;;;14.70;99.90;;;;;;6242960;23;20463;-81
2021/08/19 03:18:03;;;;;;;8.68;5.65;;;14.70;99.90;;;;;;6243308;23;20043;-79
2021/08/19 03:20:31;;;;;;;8.68;5.88;;;14.70;99.90;;;;;;6243244;23;20333;-81
2021/08/19 03:22:58;;;;;;;5.88;4.97;;;14.70;99.90;;;;;;6243369;23;20019;-82
2021/08/19 03:25:26;;;;;;;8.05;4.80;;;14.70;99.90;;;;;;6242689;22;20312;-82
2021/08/19 03:28:00;;;;;;;11.38;5.30;;;14.70;99.90;;;;;;6243455;23;20020;-82
2021/08/19 03:30:27;;;;;;;8.73;5.63;;;14.70;99.90;;;;;;6242324;22;20375;-82
2021/08/19 03:32:54;;;;;;;8.23;5.22;;;14.70;99.90;;;;;;6243210;23;20024;-82
2021/08/19 03:35:21;;;;;;;8.05;5.35;;;14.70;99.90;;;;;;6242091;22;20023;-82
2021/08/19 03:37:49;;;;;;;8.68;5.78;;;14.70;99.90;;;;;;6242983;23;20449;-82
2021/08/19 03:40:17;;;;;;;9.38;5.65;;;14.70;99.90;;;;;;6242526;22;20027;-82
2021/08/19 03:42:44;;;;;;;10.10;5.37;;;14.70;99.90;;;;;;6243442;23;20027;-82
2021/08/19 03:45:11;;;;;;;10.27;6.05;;;14.70;99.90;;;;;;6241898;22;20253;-81
2021/08/19 03:47:38;;;;;;;6.43;4.65;;;14.70;99.90;;;;;;6243209;23;20020;-82
2021/08/19 03:50:07;;;;;;;7.60;5.43;;;14.70;99.90;;;;;;6241838;22;20421;-80
2021/08/19 03:52:34;;;;;;;8.30;5.10;;;14.70;99.90;;;;;;6243337;23;20032;-82
2021/08/19 03:55:02;;;;;;;9.13;5.00;;;14.70;99.90;;;;;;6242971;23;20020;-80
2021/08/19 03:57:29;;;;;;;8.23;5.60;;;14.70;99.90;;;;;;6241641;22;20511;-83
2021/08/19 03:59:56;;;;;;;8.13;5.45;;;14.70;99.90;;;;;;6243054;23;20023;-82
2021/08/19 04:02:23;;;;;;;12.98;5.95;;;14.70;99.90;;;;;;6242198;22;20966;-80
2021/08/19 04:04:50;;;;;;;11.25;5.55;;;14.70;99.90;;;;;;6243172;23;20016;-82
2021/08/19 04:07:17;;;;;;;9.63;5.22;;;14.70;99.90;;;;;;6241905;22;20459;-82
2021/08/19 04:09:44;;;;;;;9.15;5.50;;;14.70;99.90;;;;;;6242812;23;20020;-82
2021/08/19 04:12:11;;;;;;;10.13;5.65;;;14.70;99.90;;;;;;6241847;22;20500;-83
2021/08/19 04:14:42;;;;;;;9.00;6.00;;;14.70;99.90;;;;;;6230804;23;20070;-83
2021/08/19 04:17:17;;;;;;;16.45;6.30;;;14.70;99.90;;;;;;6178988;23;20024;-83
2021/08/19 04:19:45;;;;;;;8.57;5.50;;;14.70;99.90;;;;;;6241396;23;20303;-83
2021/08/19 04:22:12;;;;;;;9.90;5.90;;;14.70;99.90;;;;;;6243556;22;20115;-81
2021/08/19 04:24:39;;;;;;;12.52;5.90;;;14.70;99.90;;;;;;6245669;23;20019;-82
2021/08/19 04:27:06;;;;;;;11.40;6.60;;;14.70;99.90;;;;;;6243836;22;20020;-82
2021/08/19 04:29:33;;;;;;;9.27;6.00;;;14.70;99.90;;;;;;6245146;23;20027;-82
2021/08/19 04:32:13;;;;;;;14.48;6.25;;;14.70;99.90;;;;;;6204045;23;20020;-80
2021/08/19 04:34:47;;;;;;;10.02;6.13;;;14.70;99.90;;;;;;6184004;23;20031;-82
2021/08/19 04:37:24;;;;;;;10.75;6.25;;;14.70;99.90;;;;;;6243613;22;20099;-81
2021/08/19 04:39:55;;;;;;;9.38;5.93;;;14.70;99.90;;;;;;6244683;23;20059;-82
2021/08/19 04:42:25;;;;;;;13.38;5.60;;;14.70;99.90;;;;;;6215881;23;20087;-80
2021/08/19 04:44:55;;;;;;;13.23;5.80;;;14.70;99.90;;;;;;6185615;23;20096;-83
2021/08/19 04:47:34;;;;;;;14.48;6.65;;;14.70;99.90;;;;;;6205694;23;20024;-82
2021/08/19 04:50:03;;;;;;;11.52;5.88;;;14.70;99.90;;;;;;6226045;23;20028;-83
2021/08/19 04:52:31;;;;;;;12.98;6.15;;;14.70;99.90;;;;;;6216015;23;20020;-82
2021/08/19 04:54:58;;;;;;;11.25;6.28;;;14.70;99.90;;;;;;6237862;23;20024;-81
2021/08/19 04:57:25;;;;;;;18.85;6.53;;;14.70;99.90;;;;;;6243333;22;20502;-82
2021/08/19 04:59:52;;;;;;;12.63;6.57;;;14.70;99.90;;;;;;6243678;23;20103;-82
2021/08/19 05:02:19;;;;;;;10.20;6.53;;;14.70;99.90;;;;;;6243483;22;20016;-82
2021/08/19 05:04:49;;;;;;;15.98;6.65;;;14.70;99.90;;;;;;6245267;23;20441;-82
2021/08/19 05:07:18;;;;;;;15.10;6.68;;;14.70;99.90;;;;;;6232327;22;20070;-82
2021/08/19 05:09:52;;;;;;;22.40;6.22;;;14.70;99.90;;;;;;6244276;23;20298;-81
2021/08/19 05:12:21;;;;;;;16.70;6.72;;;14.70;99.90;;;;;;6228894;23;20020;-82
2021/08/19 05:14:50;;;;;;;13.40;6.45;;;14.70;99.90;;;;;;6223464;23;20091;-81
2021/08/19 05:17:18;;;;;;;28.08;6.45;;;14.70;99.90;;;;;;6242784;22;20050;-83
2021/08/19 05:19:45;;;;;;;23.65;6.57;;;14.70;99.90;;;;;;6244216;23;20016;-81
2021/08/19 05:22:12;;;;;;;15.70;7.07;;;14.70;99.90;;;;;;6215950;23;20376;-83
2021/08/19 05:24:43;;;;;;;13.65;6.88;;;14.70;99.90;;;;;;6209788;23;20095;-83
2021/08/19 05:27:13;;;;;;;18.65;7.45;;;14.70;99.90;;;;;;6229961;22;20404;-82
2021/08/19 05:29:43;;;;;;;20.80;8.02;;;14.70;99.90;;;;;;6232315;23;20024;-80
2021/08/19 05:32:12;;;;;;;15.00;6.93;;;14.70;99.90;;;;;;6207274;23;20013;-81
2021/08/19 05:34:42;;;;;;;18.95;7.65;;;14.70;99.90;;;;;;6244538;23;20020;-82
2021/08/19 05:37:12;;;;;;;12.63;7.80;;;14.70;99.90;;;;;;6231075;22;20020;-83
2021/08/19 05:39:39;;;;;;;20.17;7.55;;;14.80;99.90;;;;;;6244331;23;20039;-81
2021/08/19 05:42:09;;;;;;;18.60;7.45;;;14.80;99.90;;;;;;6206564;23;20020;-83
2021/08/19 05:44:37;;;;;;;22.77;7.60;;;14.80;99.90;;;;;;6204346;23;20440;-83
2021/08/19 05:47:06;;;;;;;20.85;7.82;;;14.80;99.90;;;;;;6223871;22;20459;-83
2021/08/19 05:49:40;;;;;;;20.95;7.97;;;14.80;99.90;;;;;;6243298;23;20020;-82
2021/08/19 05:52:08;;;;;;;15.50;7.32;;;14.80;99.90;;;;;;6242998;22;20016;-82
2021/08/19 05:54:46;;;;;;;22.30;7.50;;;14.80;99.90;;;;;;6229844;23;20115;-83
2021/08/19 05:57:16;;;;;;;13.45;7.15;;;14.80;99.90;;;;;;6242510;22;20020;-80
2021/08/19 05:59:43;;;;;;;14.55;6.97;;;14.80;99.90;;;;;;6232515;23;20023;-83
2021/08/19 06:02:11;;;;;;;23.80;7.60;;;14.80;99.90;;;;;;6242971;22;20017;-82
2021/08/19 06:04:43;;;;;;;16.33;7.53;;;14.80;99.90;;;;;;6230908;23;20012;-82
2021/08/19 06:07:11;;;;;;;13.45;8.32;;;14.90;99.90;;;;;;6242926;22;20324;-83
2021/08/19 06:09:40;;;;;;;11.23;7.05;;;14.90;99.90;;;;;;6230436;23;20020;-82
2021/08/19 06:13:00;;;;;;;;;;;;;;;;;;;;;
2021/08/19 06:15:58;;;;;;;9.93;6.90;;;14.90;99.90;;;;;;6173066;23;20403;-83
2021/08/19 06:29:27;;;;;;;;;;;;;;;;;;;;;
2021/08/19 06:32:09;;;;;;;5.78;5.07;;;15.00;99.90;;;;;;5950487;24;20020;-83
2021/08/19 06:34:40;;;;;;;7.78;5.25;;;15.10;99.90;;;;;;5936201;24;20498;-81
2021/08/19 06:37:08;;;;;;;5.22;4.03;;;15.10;99.90;;;;;;6058942;23;20510;-79
2021/08/19 06:39:52;;;;;;;;;;;;;;;;;;;;;
2021/08/19 06:57:11;;;;;;;2.95;2.20;;;15.20;99.90;;;;;;5134174;27;20394;-82
2021/08/19 06:59:38;;;;;;;3.22;2.42;;;15.30;99.90;;;;;;5128678;27;20054;-82
2021/08/19 07:02:05;;;;;;;2.72;2.10;;;15.30;99.90;;;;;;5127664;27;20040;-81
2021/08/19 07:04:32;;;;;;;3.55;2.38;;;15.40;99.90;;;;;;5128183;27;20421;-81
2021/08/19 07:06:59;;;;;;;2.50;2.30;;;15.40;99.90;;;;;;5128340;27;20043;-82
2021/08/19 07:09:26;;;;;;;2.88;2.58;;;15.50;99.90;;;;;;5126912;27;20372;-81
2021/08/19 07:11:55;;;;;;;2.85;2.50;;;15.60;99.90;;;;;;5119790;27;20461;-82
2021/08/19 07:14:22;;;;;;;2.58;2.38;;;15.60;99.90;;;;;;5127039;27;20050;-82
2021/08/19 07:16:49;;;;;;;2.63;2.42;;;15.70;99.90;;;;;;5103451;28;20043;-82
2021/08/19 07:19:16;;;;;;;2.85;2.63;;;15.80;99.90;;;;;;5127952;27;20051;-82
2021/08/19 07:21:45;;;;;;;3.03;2.72;;;15.80;99.90;;;;;;5127744;27;20122;-82
2021/08/19 07:24:12;;;;;;;2.72;2.53;;;15.80;99.90;;;;;;5127102;27;20047;-80
2021/08/19 07:26:40;;;;;;;3.03;2.70;;;15.90;99.90;;;;;;5127344;28;20051;-80
2021/08/19 07:29:07;;;;;;;6.38;2.83;;;15.90;99.90;;;;;;5127171;27;20066;-82
2021/08/19 07:31:36;;;;;;;3.90;2.92;;;16.00;99.90;;;;;;5127626;28;20475;-82
2021/08/19 07:34:06;;;;;;;4.07;3.20;;;16.00;99.90;;;;;;5125959;27;20044;-82
2021/08/19 07:36:34;;;;;;;3.80;3.00;;;16.00;99.90;;;;;;5126520;27;20044;-82
2021/08/19 07:39:04;;;;;;;3.83;3.05;;;16.10;99.90;;;;;;5127146;28;20052;-83
2021/08/19 07:41:36;;;;;;;3.50;3.20;;;16.10;99.90;;;;;;5126397;27;20043;-82
2021/08/19 07:44:06;;;;;;;3.63;2.92;;;16.10;99.90;;;;;;5118103;27;20045;-82
2021/08/19 07:46:35;;;;;;;3.85;3.00;;;16.20;99.90;;;;;;5106605;27;20047;-83
2021/08/19 07:49:03;;;;;;;4.20;3.00;;;16.20;99.90;;;;;;5122953;28;20372;-82
2021/08/19 07:51:34;;;;;;;3.25;2.95;;;16.30;99.90;;;;;;5125757;27;20146;-82
2021/08/19 07:54:03;;;;;;;;;;;16.30;99.90;;;;;;5114768;27;20091;-82
2021/08/19 07:56:32;;;;;;;3.22;2.80;;;16.30;99.90;;;;;;5121059;28;19927;-81
2021/08/19 08:03:32;;;;;;;;;;;;;;;;;;;;;
2021/08/19 08:06:55;;;;;;;2.30;2.10;;;16.40;99.90;;;;;;4823572;29;20046;-82
2021/08/19 08:09:21;;;;;;;2.92;2.05;;;16.40;99.90;;;;;;4857949;29;20424;-81
2021/08/19 08:12:02;;;;;;;2.72;1.83;;;16.50;99.90;;;;;;4911367;29;20055;-82
2021/08/19 08:14:44;;;;;;;2.17;2.00;;;16.50;99.90;;;;;;4919609;29;20115;-80
2021/08/19 08:17:11;;;;;;;2.10;1.75;;;16.60;99.90;;;;;;4909803;29;20760;-81
2021/08/19 08:19:39;;;;;;;2.03;1.83;;;16.60;99.90;;;;;;4918390;29;20135;-80
2021/08/19 08:22:06;;;;;;;1.38;1.27;;;16.70;99.90;;;;;;4925008;29;20444;-81
2021/08/19 08:24:37;;;;;;;1.40;1.30;;;16.70;99.90;;;;;;4918246;29;20047;-82
2021/08/19 08:27:04;;;;;;;1.40;1.30;;;16.80;99.90;;;;;;4917660;29;20048;-80
2021/08/19 08:29:45;;;;;;;1.83;1.13;;;16.80;99.90;;;;;;4919558;29;20511;-82
2021/08/19 08:32:12;;;;;;;1.10;1.00;;;16.90;99.90;;;;;;4917348;29;20091;-82
2021/08/19 08:34:40;;;;;;;1.05;0.93;;;17.00;99.90;;;;;;4918369;29;20059;-82
2021/08/19 08:37:08;;;;;;;1.20;1.00;;;17.00;99.90;;;;;;4962503;28;20137;-82
2021/08/19 08:39:38;;;;;;;1.15;0.90;;;17.10;99.90;;;;;;4995966;28;20053;-82
2021/08/19 08:42:10;;;;;;;2.38;1.30;;;17.10;99.90;;;;;;5043522;27;20134;-82
2021/08/19 08:44:39;;;;;;;1.10;1.10;;;17.20;99.90;;;;;;5112483;28;20051;-81
2021/08/19 08:47:07;;;;;;;1.48;1.20;;;17.30;99.90;;;;;;5110966;28;20044;-82
2021/08/19 08:49:34;;;;;;;1.60;1.40;;;17.30;99.90;;;;;;5112572;28;20441;-82
2021/08/19 08:52:05;;;;;;;1.93;1.83;;;17.40;99.90;;;;;;5112865;28;20042;-82
2021/08/19 08:54:33;;;;;;;4.15;1.70;;;17.40;99.90;;;;;;5111434;28;20062;-80
2021/08/19 08:57:01;;;;;;;1.90;1.80;;;17.50;99.90;;;;;;5111687;28;20042;-82
2021/08/19 08:59:30;;;;;;;2.17;1.98;;;17.50;99.90;;;;;;5101995;27;20273;-83
2021/08/19 09:02:03;;;;;;;2.67;2.30;;;17.50;99.90;;;;;;5112181;28;20138;-83
2021/08/19 09:04:30;;;;;;;4.25;2.13;;;17.60;99.90;;;;;;5111290;28;20051;-83
2021/08/19 09:07:05;;;;;;;2.40;2.17;;;17.70;99.90;;;;;;5112397;28;20096;-83
2021/08/19 09:09:34;;;;;;;4.43;2.50;;;17.70;99.90;;;;;;5102104;27;20103;-81
2021/08/19 09:12:09;;;;;;;1.88;1.70;;;17.70;99.90;;;;;;5097385;28;20055;-83
2021/08/19 09:14:41;;;;;;;2.30;2.10;;;17.80;99.90;;;;;;5084036;28;20043;-83
2021/08/19 09:17:08;;;;;;;2.22;1.90;;;17.80;99.90;;;;;;5111123;27;20391;-81
2021/08/19 09:19:40;;;;;;;2.20;2.00;;;17.80;99.90;;;;;;5103481;28;20040;-83
2021/08/19 09:22:10;;;;;;;2.50;2.30;;;17.90;99.90;;;;;;5093154;27;20047;-83
2021/08/19 09:24:42;;;;;;;1.73;1.63;;;17.90;99.90;;;;;;5101376;28;20047;-80
2021/08/19 09:27:19;;;;;;;1.77;1.67;;;17.90;99.90;;;;;;5086422;28;20039;-82
2021/08/19 09:30:00;;;;;;;1.90;1.65;;;17.90;99.90;;;;;;5096104;28;20043;-82
2021/08/19 09:32:37;;;;;;;2.22;1.60;;;18.00;99.90;;;;;;5083657;28;20047;-83
2021/08/19 09:35:15;;;;;;;1.20;1.10;;;18.00;99.90;;;;;;5069771;28;20499;-83
2021/08/19 09:37:57;;;;;;;1.55;1.20;;;18.00;99.90;;;;;;5079344;28;20039;-80
2021/08/19 09:40:30;;;;;;;1.30;1.15;;;18.00;99.90;;;;;;5069737;28;20062;-83
2021/08/19 09:43:02;;;;;;;1.58;1.48;;;18.00;99.90;;;;;;5065401;28;20040;-83
2021/08/19 09:45:42;;;;;;;2.53;1.52;;;18.00;99.90;;;;;;5091310;28;20039;-83
2021/08/19 09:48:16;;;;;;;2.20;1.40;;;18.00;99.90;;;;;;5083453;28;20071;-83
2021/08/19 09:50:48;;;;;;;1.40;1.30;;;18.00;99.90;;;;;;5070628;28;20138;-81
2021/08/19 09:53:25;;;;;;;1.35;1.23;;;18.10;99.90;;;;;;5063376;28;20048;-83
2021/08/19 09:56:09;;;;;;;1.73;1.30;;;18.10;99.90;;;;;;5067258;28;20051;-83
2021/08/19 09:58:48;;;;;;;1.60;1.50;;;18.10;99.90;;;;;;5071006;28;20051;-83
2021/08/19 10:01:26;;;;;;;1.35;1.25;;;18.10;99.90;;;;;;5082310;28;20089;-81
2021/08/19 10:03:55;;;;;;;1.70;1.30;;;18.10;99.90;;;;;;5090804;28;20479;-80
2021/08/19 10:06:23;;;;;;;1.35;1.25;;;18.20;99.90;;;;;;5083873;28;20154;-83
2021/08/19 10:08:52;;;;;;;1.50;1.40;;;18.20;99.90;;;;;;5093870;28;20430;-82
2021/08/19 10:11:19;;;;;;;1.20;1.10;;;18.30;99.90;;;;;;5082353;28;20388;-83
2021/08/19 10:13:46;;;;;;;1.35;1.23;;;18.30;99.90;;;;;;5091246;28;20047;-83
2021/08/19 10:16:16;;;;;;;2.25;1.70;;;18.40;99.90;;;;;;5083821;28;20096;-83
2021/08/19 10:18:44;;;;;;;1.63;1.42;;;18.50;99.90;;;;;;5093654;28;20048;-82
2021/08/19 10:21:31;;;;;;;1.75;1.48;;;18.60;99.90;;;;;;5091613;28;20051;-81
2021/08/19 10:24:11;;;;;;;2.88;1.33;;;18.60;99.90;;;;;;5095771;28;20051;-82
2021/08/19 10:26:38;;;;;;;3.55;1.63;;;18.60;99.90;;;;;;5083470;28;20048;-83
2021/08/19 10:29:09;;;;;;;1.48;1.38;;;18.70;99.90;;;;;;5092902;28;20074;-81
2021/08/19 10:31:43;;;;;;;1.60;1.50;;;18.70;99.90;;;;;;5068110;28;20051;-83
2021/08/19 10:34:36;;;;;;;1.75;1.50;;;18.80;99.90;;;;;;5073062;28;20206;-83
2021/08/19 10:37:04;;;;;;;2.33;1.70;;;18.90;99.90;;;;;;5086581;28;20063;-82
2021/08/19 10:39:37;;;;;;;1.90;1.50;;;18.90;99.90;;;;;;5092807;28;20143;-82
2021/08/19 10:42:08;;;;;;;2.78;2.10;;;19.10;99.90;;;;;;5081357;28;20487;-83
2021/08/19 10:44:45;;;;;;;3.65;2.30;;;19.10;99.90;;;;;;5074225;28;20142;-82
2021/08/19 10:47:36;;;;;;;2.72;2.20;;;19.30;99.90;;;;;;5081573;28;20039;-82
2021/08/19 10:50:31;;;;;;;2.65;2.10;;;19.40;99.90;;;;;;5045419;28;20090;-82
2021/08/19 10:53:20;;;;;;;4.28;2.70;;;19.50;99.90;;;;;;5065128;28;20055;-82
2021/08/19 10:55:52;;;;;;;3.78;2.38;;;19.50;99.90;;;;;;5074594;28;20090;-81
2021/08/19 10:58:38;;;;;;;4.43;3.35;;;19.60;99.90;;;;;;5088999;28;20488;-83
2021/08/19 11:01:13;;;;;;;5.82;3.13;;;19.70;99.90;;;;;;5091878;28;20040;-81
2021/08/19 11:03:46;;;;;;;5.75;3.42;;;19.80;99.90;;;;;;5083138;28;20051;-81
2021/08/19 11:06:17;;;;;;;4.18;2.75;;;19.80;99.90;;;;;;5092371;28;20051;-82
2021/08/19 11:08:58;;;;;;;4.82;3.30;;;19.90;99.90;;;;;;5084184;28;20075;-83
2021/08/19 11:11:32;;;;;;;5.70;3.25;;;19.90;99.90;;;;;;5075568;28;20424;-82
2021/08/19 11:14:16;;;;;;;4.13;3.33;;;19.90;99.90;;;;;;5083840;28;20133;-83
2021/08/19 11:16:57;;;;;;;4.22;3.17;;;19.80;99.90;;;;;;5056133;28;20055;-82
2021/08/19 11:19:31;;;;;;;5.75;3.50;;;19.80;99.90;;;;;;5069628;28;20056;-80
2021/08/19 11:22:07;;;;;;;4.95;3.20;;;19.80;99.90;;;;;;5094366;28;20047;-83
2021/08/19 11:24:34;;;;;;;4.70;3.50;;;19.70;99.90;;;;;;5073029;28;20128;-81
2021/08/19 11:27:12;;;;;;;6.82;3.55;;;19.80;99.90;;;;;;5086387;28;20039;-81
2021/08/19 11:29:52;;;;;;;6.43;4.10;;;19.80;99.90;;;;;;5047435;28;20537;-83
2021/08/19 11:32:34;;;;;;;6.28;3.63;;;19.90;99.90;;;;;;5065978;28;20043;-83
2021/08/19 11:35:05;;;;;;;6.68;3.88;;;20.10;99.90;;;;;;5094305;28;20056;-83
2021/08/19 11:37:47;;;;;;;4.88;3.25;;;20.10;99.90;;;;;;5078025;28;20048;-82
2021/08/19 11:40:29;;;;;;;6.45;3.20;;;20.30;99.90;;;;;;5096205;28;20078;-83
2021/08/19 11:42:56;;;;;;;4.10;2.85;;;20.50;99.90;;;;;;5089899;28;20063;-81
2021/08/19 11:45:39;;;;;;;7.53;3.13;;;20.50;99.90;;;;;;5085940;28;20100;-83
2021/08/19 11:48:19;;;;;;;6.47;3.92;;;20.60;99.90;;;;;;5079633;28;20043;-83
2021/08/19 11:50:52;;;;;;;5.70;3.10;;;20.60;99.90;;;;;;5069822;28;22228;-82
2021/08/19 11:53:45;;;;;;;5.60;3.10;;;20.70;99.90;;;;;;5096529;28;20046;-80
2021/08/19 11:56:57;;;;;;;5.55;3.10;;;20.70;99.90;;;;;;5052226;28;20468;-82
2021/08/19 12:00:15;;;;;;;5.18;3.03;;;20.80;99.90;;;;;;5080064;28;20135;-83
2021/08/19 12:02:53;;;;;;;6.45;3.00;;;20.80;99.90;;;;;;5074926;28;20052;-82
2021/08/19 12:05:43;;;;;;;4.40;2.30;;;20.90;99.90;;;;;;5086989;28;20043;-83
2021/08/19 12:08:24;;;;;;;4.30;2.67;;;21.00;99.90;;;;;;5085872;28;20052;-83
2021/08/19 12:11:22;;;;;;;5.78;2.85;;;21.00;99.90;;;;;;5084415;28;20085;-82
2021/08/19 12:14:11;;;;;;;5.25;2.28;;;21.10;99.90;;;;;;5059729;28;20194;-80
2021/08/19 12:16:52;;;;;;;6.20;2.45;;;21.00;99.90;;;;;;5086118;28;20450;-83
2021/08/19 12:19:29;;;;;;;5.03;2.08;;;21.10;99.90;;;;;;5067803;28;20099;-83
2021/08/19 12:22:33;;;;;;;;;;;;;;;;;;;;;
2021/08/19 12:25:28;;;;;;;7.95;2.22;;;21.00;99.90;;;;;;5073829;28;20043;-83
2021/08/19 12:28:19;;;;;;;;;;;;;;;;;;;;;
2021/08/19 12:31:03;;;;;;;5.70;2.17;;;21.30;99.90;;;;;;5074758;28;20048;-83
2021/08/19 12:33:42;;;;;;;5.03;1.98;;;21.40;99.90;;;;;;5028567;28;20056;-83
2021/08/19 12:36:12;;;;;;;4.18;2.10;;;21.60;99.90;;;;;;5083618;28;20039;-79
2021/08/19 12:38:57;;;;;;;;;;;;;;;;;;;;;
2021/08/19 12:42:14;;;;;;;5.13;2.05;;;21.50;99.90;;;;;;5083580;28;20040;-82
2021/08/19 12:45:23;;;;;;;4.32;2.00;;;21.50;99.90;;;;;;4969045;28;20465;-83
2021/08/19 12:48:38;;;;;;;;;;;;;;;;;;;;;
2021/08/19 12:51:26;;;;;;;3.60;1.38;;;21.40;99.90;;;;;;4987847;28;20061;-83
2021/08/19 12:54:30;;;;;;;3.63;1.92;;;21.40;99.90;;;;;;4969659;28;20042;-82
2021/08/19 12:57:49;;;;;;;;;;;;;;;;;;;;;
2021/08/19 13:00:36;;;;;;;5.47;1.80;;;21.50;99.90;;;;;;4919676;28;20059;-82
2021/08/19 13:03:31;;;;;;;5.22;1.40;;;21.50;99.90;;;;;;4963531;28;20049;-80
2021/08/19 13:06:12;;;;;;;3.70;1.65;;;21.50;99.90;;;;;;4940715;28;20042;-83
2021/08/19 13:09:10;;;;;;;;;;;;;;;;;;;;;
2021/08/19 13:12:29;;;;;;;;;;;;;;;;;;;;;
2021/08/19 13:15:59;;;;;;;4.18;1.80;;;21.50;99.90;;;;;;4880201;29;20093;-84
2021/08/19 13:19:14;;;;;;;;;;;;;;;;;;;;;
2021/08/19 13:22:54;;;;;;;;;;;;;;;;;;;;;
2021/08/19 13:26:33;;;;;;;4.65;2.00;;;21.70;99.90;;;;;;4769426;29;22461;-83
2021/08/19 13:29:35;;;;;;;3.05;1.40;;;21.90;99.90;;;;;;4816102;29;20794;-84
2021/08/19 13:32:55;;;;;;;3.95;1.50;;;21.80;99.90;;;;;;4819550;29;20141;-79
2021/08/19 13:36:16;;;;;;;;;;;;;;;;;;;;;
2021/08/19 13:39:25;;;;;;;;;;;;;;;;;;;;;
2021/08/19 13:42:17;;;;;;;;;;;;;;;;;;;;;
2021/08/19 13:45:42;;;;;;;;;;;;;;;;;;;;;
2021/08/19 14:02:09;;;;;;;;;;;;;;;;;;;;;
2021/08/19 14:04:47;;;;;;;4.82;1.73;;;21.90;99.90;;;;;;6189416;23;20020;-80
2021/08/19 14:07:56;;;;;;;4.55;1.85;;;21.90;99.90;;;;;;6173700;23;20016;-82
2021/08/19 14:11:10;;;;;;;3.40;1.70;;;21.90;99.90;;;;;;6077683;23;20206;-82
2021/08/19 14:13:56;;;;;;;;;;;;;;;;;;;;;
2021/08/19 14:16:55;;;;;;;2.85;1.75;;;21.90;99.90;;;;;;6061991;23;20034;-80
2021/08/19 14:19:36;;;;;;;3.45;1.42;;;21.90;99.90;;;;;;6074169;23;20357;-81
2021/08/19 14:22:37;;;;;;;;;;;;;;;;;;;;;
2021/08/19 14:26:05;;;;;;;3.90;1.80;;;22.10;99.90;;;;;;5941827;23;20052;-82
2021/08/19 14:29:02;;;;;;;;;;;;;;;;;;;;;
2021/08/19 14:32:09;;;;;;;4.15;1.65;;;22.30;99.90;;;;;;5891886;23;20033;-82
2021/08/19 14:35:01;;;;;;;4.93;1.80;;;22.30;99.90;;;;;;6028937;23;20030;-81
2021/08/19 14:37:39;;;;;;;2.70;1.40;;;22.10;99.90;;;;;;5986398;23;20022;-81